Monday, October 16, 2017, 8:08 PM EDT
Back to Local

KTEB, Teterboro Airport

Location: South Hackensack, NJ, United States Lat: 40.867
Local Time: 8:08 PM EDT ( 0:08 GMT) Lon: -74.05
Time Zone: US/Eastern Elev: 9 ft

Show me the last for .
Show Coded

Time T Td Feel RH Dir Speed Gust Alt SLP Vis Weather Sky Remarks
2017-10-16 19:51 52 34 - 50 340° 9 - 30.14 30.14 10 CLR 6-hr Min Temp (8pm): 52.0°F
6-hr Max Temp (8pm): 60.1°F
2017-10-16 18:51 54 36 - 50 330° 13 18 30.10 30.10 10 FEW055 None
2017-10-16 17:51 56 38 - 50 340° 9 - 30.08 30.07 10 SCT050 None
2017-10-16 16:51 57 37 - 47 330° 13 22 30.06 30.06 10 CLR None
2017-10-16 15:51 56 39 - 52 320° 14 24 30.04 30.04 10 CLR None
2017-10-16 14:51 60 41 - 49 320° 16 23 30.02 30.02 10 FEW040 None
2017-10-16 13:51 57 40 - 52 340° 12 - 29.99 29.99 10 CLR 6-hr Min Temp (2pm): 55.9°F
6-hr Max Temp (2pm): 57.9°F
2017-10-16 12:51 57 40 - 52 330° 15 23 30.00 29.99 10 CLR None
2017-10-16 11:51 57 42 - 57 330° 12 - 30.03 30.03 10 CLR None
2017-10-16 10:51 57 42 - 57 310° 16 22 30.01 30.00 10 CLR None
2017-10-16 09:51 56 41 - 57 310° 10 22 30.00 30.00 10 CLR None
2017-10-16 08:51 56 41 - 57 320° 10 - 29.97 29.97 10 FEW120 None
2017-10-16 07:51 58 43 - 57 320° 9 21 29.93 29.93 10 FEW034 6-hr Precip Total (8am): 0.00"
6-hr Min Temp (8am): 57.9°F
6-hr Max Temp (8am): 70.0°F
2017-10-16 06:51 60 48 - 64 320° 10 - 29.91 29.91 10 CLR None
2017-10-16 05:51 61 50 - 67 340° 16 23 29.87 29.87 10 OVC120 None
2017-10-16 04:51 62 57 - 83 300° 6 - 29.85 29.85 10 FEW080 OVC100 1-hr Precip Total: Trace
6-hr Precip Total (5am): 0.00"
2017-10-16 04:37 62 57 - 83 310° 5 - 29.84 - 10 FEW065 SCT080 OVC100 1-hr Precip Total: Trace
2017-10-16 03:51 64 55 - 72 320° 15 22 29.84 29.84 10 -RA FEW015 BKN022 OVC070 1-hr Precip Total: Trace
2017-10-16 02:51 67 62 - 84 310° 7 - 29.83 29.82 10 -DZ FEW015 BKN022 OVC070 1-hr Precip Total: Trace
2017-10-16 01:51 70 66 - 87 320° 12 - 29.81 29.80 10 -DZ SCT015 BKN022 OVC065 1-hr Precip Total: Trace
6-hr Precip Total (2am): 0.00"
6-hr Min Temp (2am): 69.1°F
6-hr Max Temp (2am): 71.1°F
2017-10-16 00:51 70 65 - 84 230° 9 - 29.80 29.80 10 -DZ SCT017 1-hr Precip Total: Trace
24-hr Min Temp (1am): 63.0°F
24-hr Max Temp (1am): 77.0°F
2017-10-15 23:51 69 65 - 86 230° 14 - 29.78 29.78 10 SCT017 None
2017-10-15 22:51 70 64 - 81 220° 13 - 29.80 29.80 10 OVC016 None
2017-10-15 21:51 70 63 - 78 210° 12 - 29.81 29.81 10 OVC020 None
2017-10-15 20:51 70 62 - 76 210° 14 - 29.80 29.80 10 OVC021 None

Support USWX by starting your Amazon purchase here.